Aviation Digital Data Service (ADDS)

Output produced by METARs form (1235 UTC 24 January 2021)
found at http://www.aviationweather.gov/metar/data/
 
Forecast for: ZGSZ (SHENZHEN , CN)
Text: TAF ZGSZ 240909Z 2412/2512 10004MPS 8000 SCT040 TX23/2506Z TN17/2422Z
Forecast period: 1200 UTC 24 January 2021 to 0400 UTC 25 January 2021
Forecast type: FROM: standard forecast or significant change
Winds: from the E (100 degrees) at 9 MPH (8 knots; 4.1 m/s)
Visibility: 5 miles (8 km)
Ceiling: at least 12,000 feet AGL
Clouds: scattered clouds at 4000 feet AGL
Weather: no significant weather forecast for this period
Text: BECMG 2504/2505 18004MPS
Forecast period: 0400 to 1200 UTC 25 January 2021
Forecast type: BECOMING: Conditions expected to become as follows by 0500 UTC 25 January 2021
Winds: from the S (180 degrees) at 9 MPH (8 knots; 4.1 m/s)
Visibility: 5 miles (8 km)
Ceiling: at least 12,000 feet AGL
Clouds: scattered clouds at 4000 feet AGL
Weather: no significant weather forecast for this period